Zapolyarye — UBEF5 — position and weather

sailwx.info

Track history (hours):
 
Tides and Currents Weather Stations Pressure Air Temp Water Temp Dewpoint Dewpoint Depression Visibility Wind Speed Wind Dir Waves Ship Positions

Zapolyarye

Last reported at 2016-Mar-26 06:00 UTC. Time now 2016-May-28 04:00 UTC.
Position N 71°00' E 033°48'.
Warning: this ship's position is months out of date.

Length 181 m; draft 7 m.

Type: Cargo ship. MMSI: 273338310.

Wind from 100 at 12 knots

Waves 1.0 meters (3 feet), 5 second period

Barometer 1099.5 mb
Air temperature -2.0 ° C
Visibility: greater than 5.4 NM
Water temperature 4.0 ° C

Date/timePositionNaut miles runAvg speedWind from/ knotsBaromVisibWave heightAir tempDewpointWater temp
2016-Mar-26 06:00N 71°00' E 033°48'238 9.9 100 / 121099.5 5.4 1.0-2.0 4.0
2016-Mar-25 06:00N 71°06' E 021°36'445 9.3 010 / 61098.2 5.4 0.5 1.0 5.0
2016-Mar-23 06:00N 65°54' E 007°12'197 8.2 400 / 81024.8 5.4 1.0 1.0 1.0
2016-Mar-22 06:00N 62°54' E 004°06'25210.5 350 / 171024.8 5.4 1.0 6.0 6.0
2016-Mar-21 06:00N 58°42' E 004°06'350 7.9 350 / 171024.8 5.4 1.0 5.0 7.0
2016-Mar-19 09:32N 52°52' E 004°15'10 8.0
2016-Mar-19 08:14N 52°43' E 004°07'6 8.2
2016-Mar-19 07:30N 52°38' E 004°02'7 7.8
2016-Mar-19 06:33N 52°32' E 003°55'8 7.8
2016-Mar-19 05:31N 52°24' E 003°53'8 8.1
2016-Mar-19 04:33N 52°16' E 003°52'9 8.7
2016-Mar-19 03:33N 52°08' E 003°55'8 8.1
2016-Mar-19 02:33N 52°00' E 004°01'1212.4
2016-Mar-19 01:33N 51°54' E 004°18'3 2.5
2016-Mar-19 00:31N 51°54' E 004°22'0 0.0
2016-Mar-18 23:31N 51°54' E 004°22'0 0.0
2016-Mar-18 22:34N 51°54' E 004°22'0 0.0
2016-Mar-18 21:33N 51°54' E 004°22'0 0.0
2016-Mar-18 20:33N 51°54' E 004°22'0 0.0
2016-Mar-18 19:33N 51°54' E 004°22'0 0.0
2016-Mar-18 18:33N 51°54' E 004°22'0 0.0
2016-Mar-18 17:33N 51°54' E 004°22'0 0.0
2016-Mar-18 16:33N 51°54' E 004°22'0 0.0
2016-Mar-18 15:33N 51°54' E 004°22'0 0.0
2016-Mar-18 14:33N 51°54' E 004°22'0 0.0
2016-Mar-18 13:33N 51°54' E 004°22'0 0.0
2016-Mar-18 12:33N 51°54' E 004°22'0 0.0
2016-Mar-18 11:33N 51°54' E 004°22'0 0.0
2016-Mar-18 10:33N 51°54' E 004°22'0 0.0
2016-Mar-18 09:33N 51°54' E 004°22'0 0.0
2016-Mar-18 08:30N 51°54' E 004°22'0 0.0
2016-Mar-18 07:30N 51°54' E 004°22'0 0.0
2016-Mar-18 06:33N 51°54' E 004°22'0 0.0
2016-Mar-18 05:33N 51°54' E 004°22'0 0.0
2016-Mar-18 04:33N 51°54' E 004°22'0 0.0
2016-Mar-18 03:33N 51°54' E 004°22'0 0.0
2016-Mar-18 02:30N 51°54' E 004°22'0 0.0
2016-Mar-18 01:33N 51°54' E 004°22'0 0.0
2016-Mar-18 00:30N 51°54' E 004°22'0 0.0
2016-Mar-17 23:33N 51°54' E 004°22'0 0.0
2016-Mar-17 22:33N 51°54' E 004°22'0 0.0
2016-Mar-17 21:30N 51°54' E 004°22'0 0.0
2016-Mar-17 20:33N 51°54' E 004°22'0 0.0
2016-Mar-17 19:33N 51°54' E 004°22'0 0.0
2016-Mar-17 18:33N 51°54' E 004°22'0 0.0
2016-Mar-17 17:33N 51°54' E 004°22'0 0.0
2016-Mar-17 16:33N 51°54' E 004°22'0 0.0
2016-Mar-17 15:33N 51°54' E 004°22'0 0.0
2016-Mar-17 14:33N 51°54' E 004°22'0 0.0
2016-Mar-17 13:33N 51°54' E 004°22'0 0.0
2016-Mar-17 12:33N 51°54' E 004°22'0 0.0
2016-Mar-17 11:33N 51°54' E 004°22'0 0.0
2016-Mar-17 10:33N 51°54' E 004°22'0 0.0
2016-Mar-17 09:33N 51°54' E 004°22'0 0.0
2016-Mar-17 08:30N 51°54' E 004°22'0 0.0
2016-Mar-17 07:33N 51°54' E 004°22'0 0.0
2016-Mar-17 06:33N 51°54' E 004°22'0 0.0
2016-Mar-17 05:30N 51°54' E 004°22'0 0.0
2016-Mar-17 04:33N 51°54' E 004°22'0 0.0
2016-Mar-17 03:32N 51°54' E 004°22'0 0.0
2016-Mar-17 02:26N 51°54' E 004°22'0 0.0
2016-Mar-17 01:32N 51°54' E 004°22'0 0.0
2016-Mar-17 00:32N 51°54' E 004°22'0 0.0
2016-Mar-16 23:32N 51°54' E 004°22'0 0.0
2016-Mar-16 22:32N 51°54' E 004°22'0 0.0
2016-Mar-16 21:32N 51°54' E 004°22'0 0.0
2016-Mar-16 20:32N 51°54' E 004°22'0 0.0
2016-Mar-16 19:32N 51°54' E 004°22'0 0.0
2016-Mar-16 18:32N 51°54' E 004°22'0 0.0
2016-Mar-16 17:32N 51°54' E 004°22'0 0.0
2016-Mar-16 16:32N 51°54' E 004°22'0 0.0
2016-Mar-16 15:32N 51°54' E 004°22'0 0.0
2016-Mar-16 14:32N 51°54' E 004°22'0 0.0
2016-Mar-16 13:32N 51°54' E 004°22'0 0.0
2016-Mar-16 12:32N 51°54' E 004°22'0 0.0
2016-Mar-16 11:29N 51°54' E 004°22'0 0.0
2016-Mar-16 10:32N 51°54' E 004°22'0 0.0
2016-Mar-16 09:32N 51°54' E 004°22'0 0.3
2016-Mar-16 08:34N 51°54' E 004°22'8 8.5
2016-Mar-16 07:34N 51°58' E 004°09'1111.3
2016-Mar-16 06:34N 51°60' E 003°51'  
Track history (hours):
 
Tides and Currents Weather Stations Pressure Air Temp Water Temp Dewpoint Dewpoint Depression Visibility Wind Speed Wind Dir Waves Ship Positions

Zapolyarye

Last reported at 2016-Mar-26 06:00 UTC. Time now 2016-May-28 04:00 UTC.
Position N 71°00' E 033°48'.
Warning: this ship's position is months out of date.

Length 181 m; draft 7 m.

Type: Cargo ship. MMSI: 273338310.

Wind from 100 at 12 knots

Waves 1.0 meters (3 feet), 5 second period

Barometer 1099.5 mb
Air temperature -2.0 ° C
Visibility: greater than 5.4 NM
Water temperature 4.0 ° C

Date/timePositionNaut miles runAvg speedWind from/ knotsBaromVisibWave heightAir tempDewpointWater temp
2016-Mar-26 06:00N 71°00' E 033°48'238 9.9 100 / 121099.5 5.4 1.0-2.0 4.0
2016-Mar-25 06:00N 71°06' E 021°36'445 9.3 010 / 61098.2 5.4 0.5 1.0 5.0
2016-Mar-23 06:00N 65°54' E 007°12'197 8.2 400 / 81024.8 5.4 1.0 1.0 1.0
2016-Mar-22 06:00N 62°54' E 004°06'25210.5 350 / 171024.8 5.4 1.0 6.0 6.0
2016-Mar-21 06:00N 58°42' E 004°06'350 7.9 350 / 171024.8 5.4 1.0 5.0 7.0
2016-Mar-19 09:32N 52°52' E 004°15'10 8.0
2016-Mar-19 08:14N 52°43' E 004°07'6 8.2
2016-Mar-19 07:30N 52°38' E 004°02'7 7.8
2016-Mar-19 06:33N 52°32' E 003°55'8 7.8
2016-Mar-19 05:31N 52°24' E 003°53'8 8.1
2016-Mar-19 04:33N 52°16' E 003°52'9 8.7
2016-Mar-19 03:33N 52°08' E 003°55'8 8.1
2016-Mar-19 02:33N 52°00' E 004°01'1212.4
2016-Mar-19 01:33N 51°54' E 004°18'3 2.5
2016-Mar-19 00:31N 51°54' E 004°22'0 0.0
2016-Mar-18 23:31N 51°54' E 004°22'0 0.0
2016-Mar-18 22:34N 51°54' E 004°22'0 0.0
2016-Mar-18 21:33N 51°54' E 004°22'0 0.0
2016-Mar-18 20:33N 51°54' E 004°22'0 0.0
2016-Mar-18 19:33N 51°54' E 004°22'0 0.0
2016-Mar-18 18:33N 51°54' E 004°22'0 0.0
2016-Mar-18 17:33N 51°54' E 004°22'0 0.0
2016-Mar-18 16:33N 51°54' E 004°22'0 0.0
2016-Mar-18 15:33N 51°54' E 004°22'0 0.0
2016-Mar-18 14:33N 51°54' E 004°22'0 0.0
2016-Mar-18 13:33N 51°54' E 004°22'0 0.0
2016-Mar-18 12:33N 51°54' E 004°22'0 0.0
2016-Mar-18 11:33N 51°54' E 004°22'0 0.0
2016-Mar-18 10:33N 51°54' E 004°22'0 0.0
2016-Mar-18 09:33N 51°54' E 004°22'0 0.0
2016-Mar-18 08:30N 51°54' E 004°22'0 0.0
2016-Mar-18 07:30N 51°54' E 004°22'0 0.0
2016-Mar-18 06:33N 51°54' E 004°22'0 0.0
2016-Mar-18 05:33N 51°54' E 004°22'0 0.0
2016-Mar-18 04:33N 51°54' E 004°22'0 0.0
2016-Mar-18 03:33N 51°54' E 004°22'0 0.0
2016-Mar-18 02:30N 51°54' E 004°22'0 0.0
2016-Mar-18 01:33N 51°54' E 004°22'0 0.0
2016-Mar-18 00:30N 51°54' E 004°22'0 0.0
2016-Mar-17 23:33N 51°54' E 004°22'0 0.0
2016-Mar-17 22:33N 51°54' E 004°22'0 0.0
2016-Mar-17 21:30N 51°54' E 004°22'0 0.0
2016-Mar-17 20:33N 51°54' E 004°22'0 0.0
2016-Mar-17 19:33N 51°54' E 004°22'0 0.0
2016-Mar-17 18:33N 51°54' E 004°22'0 0.0
2016-Mar-17 17:33N 51°54' E 004°22'0 0.0
2016-Mar-17 16:33N 51°54' E 004°22'0 0.0
2016-Mar-17 15:33N 51°54' E 004°22'0 0.0
2016-Mar-17 14:33N 51°54' E 004°22'0 0.0
2016-Mar-17 13:33N 51°54' E 004°22'0 0.0
2016-Mar-17 12:33N 51°54' E 004°22'0 0.0
2016-Mar-17 11:33N 51°54' E 004°22'0 0.0
2016-Mar-17 10:33N 51°54' E 004°22'0 0.0
2016-Mar-17 09:33N 51°54' E 004°22'0 0.0
2016-Mar-17 08:30N 51°54' E 004°22'0 0.0
2016-Mar-17 07:33N 51°54' E 004°22'0 0.0
2016-Mar-17 06:33N 51°54' E 004°22'0 0.0
2016-Mar-17 05:30N 51°54' E 004°22'0 0.0
2016-Mar-17 04:33N 51°54' E 004°22'0 0.0
2016-Mar-17 03:32N 51°54' E 004°22'0 0.0
2016-Mar-17 02:26N 51°54' E 004°22'0 0.0
2016-Mar-17 01:32N 51°54' E 004°22'0 0.0
2016-Mar-17 00:32N 51°54' E 004°22'0 0.0
2016-Mar-16 23:32N 51°54' E 004°22'0 0.0
2016-Mar-16 22:32N 51°54' E 004°22'0 0.0
2016-Mar-16 21:32N 51°54' E 004°22'0 0.0
2016-Mar-16 20:32N 51°54' E 004°22'0 0.0
2016-Mar-16 19:32N 51°54' E 004°22'0 0.0
2016-Mar-16 18:32N 51°54' E 004°22'0 0.0
2016-Mar-16 17:32N 51°54' E 004°22'0 0.0
2016-Mar-16 16:32N 51°54' E 004°22'0 0.0
2016-Mar-16 15:32N 51°54' E 004°22'0 0.0
2016-Mar-16 14:32N 51°54' E 004°22'0 0.0
2016-Mar-16 13:32N 51°54' E 004°22'0 0.0
2016-Mar-16 12:32N 51°54' E 004°22'0 0.0
2016-Mar-16 11:29N 51°54' E 004°22'0 0.0
2016-Mar-16 10:32N 51°54' E 004°22'0 0.0
2016-Mar-16 09:32N 51°54' E 004°22'0 0.3
2016-Mar-16 08:34N 51°54' E 004°22'8 8.5
2016-Mar-16 07:34N 51°58' E 004°09'1111.3
2016-Mar-16 06:34N 51°60' E 003°51'  

Dump ship's entire track history